Time,TemperatureF,DewpointF,PressureIn,WindDirection,WindDirectionDegrees,WindSpeedMPH,WindSpeedGustMPH,Humidity,HourlyPrecipIn,Conditions,Clouds,dailyrainin,SoftwareType,DateUTC
2013-03-24 00:00:00,8.1,3.0,30.34,ENE,59,0.0,-999.0,78,-99.99,,,0.00,weatherlink.com 1.10,2013-03-24 06:00:00,
2013-03-24 00:15:00,8.3,3.0,30.34,ENE,59,1.0,-999.0,80,-99.99,,,0.00,weatherlink.com 1.10,2013-03-24 06:15:00,
2013-03-24 00:30:00,8.9,4.0,30.34,ENE,58,2.0,-999.0,79,-99.99,,,0.00,weatherlink.com 1.10,2013-03-24 06:30:00,
2013-03-24 00:45:00,9.8,4.0,30.34,ENE,58,1.0,-999.0,78,-99.99,,,0.00,weatherlink.com 1.10,2013-03-24 06:45:00,
2013-03-24 01:00:00,9.8,4.0,30.35,ENE,58,0.0,-999.0,77,-99.99,,,0.00,weatherlink.com 1.10,2013-03-24 07:00:00,
2013-03-24 01:15:00,9.4,4.0,30.34,ENE,58,0.0,-999.0,78,-99.99,,,0.00,weatherlink.com 1.10,2013-03-24 07:15:00,
2013-03-24 01:30:00,9.8,5.0,30.34,ENE,57,0.0,-999.0,79,-99.99,,,0.00,weatherlink.com 1.10,2013-03-24 07:30:00,
2013-03-24 01:45:00,10.6,5.0,30.33,ENE,58,2.0,-999.0,79,-99.99,,,0.00,weatherlink.com 1.10,2013-03-24 07:45:00,
2013-03-24 02:00:00,10.7,5.0,30.33,ENE,58,0.0,-999.0,79,-99.99,,,0.00,weatherlink.com 1.10,2013-03-24 08:00:00,
2013-03-24 02:15:00,10.2,5.0,30.32,ENE,58,0.0,-999.0,79,-99.99,,,0.00,weatherlink.com 1.10,2013-03-24 08:15:00,
2013-03-24 02:30:00,9.5,4.0,30.32,ENE,58,0.0,-999.0,79,-99.99,,,0.00,weatherlink.com 1.10,2013-03-24 08:30:00,
2013-03-24 02:45:00,8.9,4.0,30.32,ENE,58,0.0,-999.0,79,-99.99,,,0.00,weatherlink.com 1.10,2013-03-24 08:45:00,
2013-03-24 03:00:00,8.9,4.0,30.32,ENE,58,0.0,-999.0,81,-99.99,,,0.00,weatherlink.com 1.10,2013-03-24 09:00:00,
2013-03-24 03:15:00,8.9,4.0,30.32,ENE,58,0.0,-999.0,80,-99.99,,,0.00,weatherlink.com 1.10,2013-03-24 09:15:00,
2013-03-24 03:30:00,8.5,4.0,30.31,ENE,58,0.0,-999.0,81,-99.99,,,0.00,weatherlink.com 1.10,2013-03-24 09:30:00,
2013-03-24 03:45:00,8.8,4.0,30.31,ENE,58,1.0,-999.0,81,-99.99,,,0.00,weatherlink.com 1.10,2013-03-24 09:45:00,
2013-03-24 04:00:00,8.9,5.0,30.31,ENE,58,0.0,-999.0,82,-99.99,,,0.00,weatherlink.com 1.10,2013-03-24 10:00:00,
2013-03-24 04:15:00,9.0,5.0,30.31,ENE,58,0.0,-999.0,82,-99.99,,,0.00,weatherlink.com 1.10,2013-03-24 10:15:00,
2013-03-24 04:30:00,9.7,6.0,30.31,ENE,58,2.0,-999.0,83,-99.99,,,0.00,weatherlink.com 1.10,2013-03-24 10:30:00,
2013-03-24 04:45:00,10.3,6.0,30.31,ENE,58,1.0,-999.0,83,-99.99,,,0.00,weatherlink.com 1.10,2013-03-24 10:45:00,
2013-03-24 05:00:00,10.7,7.0,30.31,ENE,58,1.0,-999.0,83,-99.99,,,0.00,weatherlink.com 1.10,2013-03-24 11:00:00,
2013-03-24 05:15:00,11.1,7.0,30.31,ENE,58,1.0,-999.0,83,-99.99,,,0.00,weatherlink.com 1.10,2013-03-24 11:15:00,
2013-03-24 05:30:00,9.9,6.0,30.31,ENE,58,0.0,-999.0,82,-99.99,,,0.00,weatherlink.com 1.10,2013-03-24 11:30:00,
2013-03-24 05:45:00,8.0,3.0,30.31,ENE,58,0.0,-999.0,80,-99.99,,,0.00,weatherlink.com 1.10,2013-03-24 11:45:00,
2013-03-24 06:00:00,7.3,3.0,30.31,ENE,58,0.0,-999.0,83,-99.99,,,0.00,weatherlink.com 1.10,2013-03-24 12:00:00,
2013-03-24 06:15:00,8.0,4.0,30.31,ENE,58,0.0,-999.0,84,-99.99,,,0.00,weatherlink.com 1.10,2013-03-24 12:15:00,
2013-03-24 06:30:00,8.2,4.0,30.31,ENE,58,0.0,-999.0,84,-99.99,,,0.00,weatherlink.com 1.10,2013-03-24 12:30:00,
2013-03-24 06:45:00,8.3,4.0,30.31,ENE,58,0.0,-999.0,84,-99.99,,,0.00,weatherlink.com 1.10,2013-03-24 12:45:00,
2013-03-24 07:00:00,7.0,3.0,30.31,ENE,58,0.0,-999.0,82,-99.99,,,0.00,weatherlink.com 1.10,2013-03-24 13:00:00,
2013-03-24 07:15:00,6.5,3.0,30.32,ENE,58,0.0,-999.0,84,-99.99,,,0.00,weatherlink.com 1.10,2013-03-24 13:15:00,
2013-03-24 07:30:00,5.5,1.0,30.32,ENE,59,2.0,-999.0,83,-99.99,,,0.00,weatherlink.com 1.10,2013-03-24 13:30:00,
2013-03-24 07:45:00,4.0,-1.0,30.32,ENE,59,0.0,-999.0,80,-99.99,,,0.00,weatherlink.com 1.10,2013-03-24 13:45:00,
2013-03-24 08:00:00,2.7,-2.0,30.32,ENE,59,0.0,-999.0,82,-99.99,,,0.00,weatherlink.com 1.10,2013-03-24 14:00:00,
2013-03-24 08:15:00,4.2,0.0,30.33,ENE,59,0.0,-999.0,84,-99.99,,,0.00,weatherlink.com 1.10,2013-03-24 14:15:00,
2013-03-24 08:30:00,6.2,2.0,30.33,ENE,59,0.0,-999.0,84,-99.99,,,0.00,weatherlink.com 1.10,2013-03-24 14:30:00,
2013-03-24 08:45:00,8.9,5.0,30.33,ENE,59,0.0,-999.0,83,-99.99,,,0.00,weatherlink.com 1.10,2013-03-24 14:45:00,
2013-03-24 09:00:00,11.4,7.0,30.33,ENE,59,0.0,-999.0,82,-99.99,,,0.00,weatherlink.com 1.10,2013-03-24 15:00:00,
2013-03-24 09:15:00,13.4,7.0,30.33,ENE,59,0.0,-999.0,77,-99.99,,,0.00,weatherlink.com 1.10,2013-03-24 15:15:00,
2013-03-24 09:30:00,13.9,7.0,30.33,ENE,59,1.0,-999.0,75,-99.99,,,0.00,weatherlink.com 1.10,2013-03-24 15:30:00,
2013-03-24 09:45:00,14.1,7.0,30.33,ENE,59,1.0,-999.0,74,-99.99,,,0.00,weatherlink.com 1.10,2013-03-24 15:45:00,
2013-03-24 10:00:00,13.8,6.0,30.33,ENE,59,1.0,-999.0,72,-99.99,,,0.00,weatherlink.com 1.10,2013-03-24 16:00:00,
2013-03-24 10:15:00,13.1,7.0,30.33,ENE,59,0.0,-999.0,76,-99.99,,,0.00,weatherlink.com 1.10,2013-03-24 16:15:00,
2013-03-24 10:30:00,14.1,7.0,30.34,ENE,59,0.0,-999.0,74,-99.99,,,0.01,weatherlink.com 1.10,2013-03-24 16:30:00,
2013-03-24 10:45:00,15.6,8.0,30.33,ENE,59,0.0,-999.0,73,-99.99,,,0.01,weatherlink.com 1.10,2013-03-24 16:45:00,
2013-03-24 11:00:00,17.2,9.0,30.34,ENE,59,0.0,-999.0,71,-99.99,,,0.01,weatherlink.com 1.10,2013-03-24 17:00:00,
2013-03-24 11:15:00,18.4,10.0,30.34,ENE,59,1.0,-999.0,69,-99.99,,,0.01,weatherlink.com 1.10,2013-03-24 17:15:00,
2013-03-24 11:31:00,17.3,8.0,30.34,WNW,292,1.0,-999.0,68,-99.99,,,0.01,weatherlink.com 1.10,2013-03-24 17:31:00,
2013-03-24 11:46:00,17.1,10.0,30.33,WNW,292,1.0,-999.0,73,-99.99,,,0.01,weatherlink.com 1.10,2013-03-24 17:46:00,
2013-03-24 12:00:00,18.4,10.0,30.34,WNW,292,0.0,-999.0,70,-99.99,,,0.01,weatherlink.com 1.10,2013-03-24 18:00:00,
2013-03-24 12:15:00,20.6,11.0,30.33,WNW,292,0.0,-999.0,67,-99.99,,,0.01,weatherlink.com 1.10,2013-03-24 18:15:00,
2013-03-24 12:45:00,21.0,11.0,30.33,WNW,292,0.0,-999.0,65,-99.99,,,0.01,weatherlink.com 1.10,2013-03-24 18:45:00,
2013-03-24 13:00:00,23.8,11.0,30.33,WNW,292,0.0,-999.0,58,-99.99,,,0.01,weatherlink.com 1.10,2013-03-24 19:00:00,
2013-03-24 13:16:00,24.5,11.0,30.33,WNW,292,0.0,-999.0,56,-99.99,,,0.01,weatherlink.com 1.10,2013-03-24 19:16:00,
2013-03-24 13:30:00,24.6,10.0,30.33,WNW,292,0.0,-999.0,55,-99.99,,,0.01,weatherlink.com 1.10,2013-03-24 19:30:00,
2013-03-24 13:44:00,25.2,11.0,30.33,WNW,292,0.0,-999.0,55,-99.99,,,0.01,weatherlink.com 1.10,2013-03-24 19:44:00,
2013-03-24 14:15:00,25.6,10.0,30.32,NW,308,1.0,-999.0,52,-99.99,,,0.01,weatherlink.com 1.10,2013-03-24 20:15:00,
2013-03-24 14:30:00,25.1,9.0,30.32,NW,308,1.0,-999.0,51,-99.99,,,0.01,weatherlink.com 1.10,2013-03-24 20:30:00,
2013-03-24 14:45:00,25.0,10.0,30.31,NW,308,4.0,-999.0,53,-99.99,,,0.01,weatherlink.com 1.10,2013-03-24 20:45:00,
2013-03-24 15:00:00,24.8,9.0,30.31,NW,306,2.0,-999.0,52,-99.99,,,0.01,weatherlink.com 1.10,2013-03-24 21:00:00,
2013-03-24 15:15:00,25.4,9.0,30.31,NW,306,0.0,-999.0,50,-99.99,,,0.01,weatherlink.com 1.10,2013-03-24 21:15:00,
2013-03-24 15:30:00,27.2,9.0,30.31,NW,306,0.0,-999.0,47,-99.99,,,0.01,weatherlink.com 1.10,2013-03-24 21:30:00,
2013-03-24 15:45:00,27.4,8.0,30.30,NW,306,1.0,-999.0,44,-99.99,,,0.01,weatherlink.com 1.10,2013-03-24 21:45:00,
2013-03-24 15:59:00,27.9,6.0,30.30,NE,45,5.0,-999.0,39,-99.99,,,0.01,weatherlink.com 1.10,2013-03-24 21:59:00,
2013-03-24 16:16:00,25.1,4.0,30.30,ENE,68,0.0,-999.0,41,-99.99,,,0.01,weatherlink.com 1.10,2013-03-24 22:16:00,
2013-03-24 16:31:00,24.8,5.0,30.30,ENE,71,3.0,-999.0,42,-99.99,,,0.01,weatherlink.com 1.10,2013-03-24 22:31:00,
2013-03-24 16:45:00,25.0,4.0,30.31,ENE,73,2.0,-999.0,40,-99.99,,,0.01,weatherlink.com 1.10,2013-03-24 22:45:00,
2013-03-24 17:00:00,24.8,3.0,30.31,ENE,72,2.0,-999.0,39,-99.99,,,0.01,weatherlink.com 1.10,2013-03-24 23:00:00,
2013-03-24 17:16:00,24.6,4.0,30.31,ENE,61,3.0,-999.0,41,-99.99,,,0.01,weatherlink.com 1.10,2013-03-24 23:16:00,
2013-03-24 17:31:00,24.5,3.0,30.31,ENE,62,1.0,-999.0,40,-99.99,,,0.01,weatherlink.com 1.10,2013-03-24 23:31:00,
2013-03-24 17:46:00,24.1,5.0,30.31,NE,53,3.0,-999.0,45,-99.99,,,0.01,weatherlink.com 1.10,2013-03-24 23:46:00,
2013-03-24 18:00:00,24.0,5.0,30.31,NE,49,3.0,-999.0,45,-99.99,,,0.01,weatherlink.com 1.10,2013-03-25 00:00:00,
2013-03-24 18:16:00,23.8,7.0,30.31,NE,53,2.0,-999.0,48,-99.99,,,0.01,weatherlink.com 1.10,2013-03-25 00:16:00,
2013-03-24 18:30:00,23.4,6.0,30.31,NE,55,1.0,-999.0,48,-99.99,,,0.01,weatherlink.com 1.10,2013-03-25 00:30:00,
2013-03-24 18:45:00,23.5,6.0,30.32,NE,55,0.0,-999.0,47,-99.99,,,0.01,weatherlink.com 1.10,2013-03-25 00:45:00,
2013-03-24 19:00:00,22.5,5.0,30.31,NE,55,1.0,-999.0,48,-99.99,,,0.01,weatherlink.com 1.10,2013-03-25 01:00:00,
2013-03-24 19:14:00,22.0,5.0,30.31,NE,55,0.0,-999.0,49,-99.99,,,0.01,weatherlink.com 1.10,2013-03-25 01:14:00,
2013-03-24 19:30:00,21.2,5.0,30.31,NE,55,0.0,-999.0,49,-99.99,,,0.01,weatherlink.com 1.10,2013-03-25 01:30:00,
2013-03-24 19:45:00,19.1,4.0,30.31,NE,55,0.0,-999.0,51,-99.99,,,0.01,weatherlink.com 1.10,2013-03-25 01:45:00,
2013-03-24 20:00:00,17.8,4.0,30.31,NE,55,0.0,-999.0,54,-99.99,,,0.01,weatherlink.com 1.10,2013-03-25 02:00:00,
2013-03-24 20:15:00,16.9,4.0,30.31,NE,55,0.0,-999.0,57,-99.99,,,0.01,weatherlink.com 1.10,2013-03-25 02:15:00,
2013-03-24 20:30:00,15.5,4.0,30.32,ENE,59,0.0,-999.0,60,-99.99,,,0.01,weatherlink.com 1.10,2013-03-25 02:30:00,
2013-03-24 20:44:00,14.3,4.0,30.32,ENE,59,0.0,-999.0,63,-99.99,,,0.01,weatherlink.com 1.10,2013-03-25 02:44:00,
2013-03-24 20:59:00,12.6,3.0,30.31,ENE,59,0.0,-999.0,64,-99.99,,,0.01,weatherlink.com 1.10,2013-03-25 02:59:00,
2013-03-24 21:14:00,11.4,2.0,30.32,ENE,59,1.0,-999.0,65,-99.99,,,0.01,weatherlink.com 1.10,2013-03-25 03:14:00,
2013-03-24 21:29:00,11.0,1.0,30.32,ENE,59,0.0,-999.0,65,-99.99,,,0.01,weatherlink.com 1.10,2013-03-25 03:29:00,
2013-03-24 21:44:00,9.6,1.0,30.32,ENE,59,0.0,-999.0,68,-99.99,,,0.01,weatherlink.com 1.10,2013-03-25 03:44:00,
2013-03-24 21:59:00,8.8,2.0,30.32,ENE,59,0.0,-999.0,72,-99.99,,,0.01,weatherlink.com 1.10,2013-03-25 03:59:00,
2013-03-24 22:14:00,8.7,1.0,30.33,ENE,59,0.0,-999.0,72,-99.99,,,0.01,weatherlink.com 1.10,2013-03-25 04:14:00,
2013-03-24 22:29:00,8.5,2.0,30.32,ENE,59,0.0,-999.0,73,-99.99,,,0.01,weatherlink.com 1.10,2013-03-25 04:29:00,
2013-03-24 22:44:00,7.9,1.0,30.32,ENE,59,0.0,-999.0,73,-99.99,,,0.01,weatherlink.com 1.10,2013-03-25 04:44:00,
2013-03-24 22:59:00,7.4,1.0,30.32,ENE,59,0.0,-999.0,75,-99.99,,,0.01,weatherlink.com 1.10,2013-03-25 04:59:00,
2013-03-24 23:14:00,6.9,1.0,30.32,ENE,59,0.0,-999.0,75,-99.99,,,0.01,weatherlink.com 1.10,2013-03-25 05:14:00,
2013-03-24 23:29:00,6.2,-1.0,30.33,ENE,59,0.0,-999.0,73,-99.99,,,0.01,weatherlink.com 1.10,2013-03-25 05:29:00,
2013-03-24 23:44:00,5.3,-1.0,30.34,ENE,59,0.0,-999.0,74,-99.99,,,0.01,weatherlink.com 1.10,2013-03-25 05:44:00,
2013-03-24 23:59:00,5.3,0.0,30.34,ENE,59,1.0,-999.0,77,-99.99,,,0.01,weatherlink.com 1.10,2013-03-25 05:59:00,